createdAt,value
2019-04-29T00:01:18.018Z,4.45
2019-04-29T00:03:46.703Z,4.62
2019-04-29T00:06:15.217Z,4.65
2019-04-29T00:08:43.819Z,4.63
2019-04-29T00:11:12.540Z,4.60
2019-04-29T00:13:41.157Z,4.70
2019-04-29T00:16:20.865Z,4.73
2019-04-29T00:18:53.797Z,4.38
2019-04-29T00:21:23.349Z,4.45
2019-04-29T00:24:03.251Z,4.34
2019-04-29T00:26:22.143Z,4.44
2019-04-29T00:28:50.603Z,4.29
2019-04-29T00:31:19.210Z,4.30
2019-04-29T00:33:47.727Z,4.18
2019-04-29T00:36:17.812Z,4.01
2019-04-29T00:38:57.240Z,4.16
2019-04-29T00:41:43.985Z,4.22
2019-04-29T00:44:14.015Z,4.16
2019-04-29T00:46:42.607Z,4.13
2019-04-29T00:49:11.133Z,4.09
2019-04-29T00:51:39.669Z,4.06
2019-04-29T00:54:12.244Z,4.14
2019-04-29T00:56:40.052Z,3.96
2019-04-29T00:59:08.542Z,3.99
2019-04-29T01:01:43.419Z,4.03
2019-04-29T01:04:11.841Z,3.99
2019-04-29T01:06:40.346Z,4.06
2019-04-29T01:09:12.633Z,3.90
2019-04-29T01:11:41.250Z,3.97
2019-04-29T01:14:10.028Z,3.91
2019-04-29T01:16:38.610Z,3.91
2019-04-29T01:19:07.134Z,3.98
2019-04-29T01:21:35.748Z,3.95
2019-04-29T01:24:04.534Z,3.97
2019-04-29T01:26:50.996Z,3.96
2019-04-29T01:29:23.508Z,3.99
2019-04-29T01:31:52.201Z,3.95
2019-04-29T01:34:24.887Z,3.72
2019-04-29T01:36:53.333Z,3.80
2019-04-29T01:39:23.557Z,3.88
2019-04-29T01:41:56.631Z,3.64
2019-04-29T01:44:26.805Z,3.60
2019-04-29T01:46:55.322Z,3.62
2019-04-29T01:49:23.949Z,3.63
2019-04-29T01:51:52.395Z,3.75
2019-04-29T01:54:20.841Z,3.63
2019-04-29T01:56:49.389Z,3.54
2019-04-29T01:59:17.905Z,3.43
2019-04-29T02:01:46.423Z,3.58
2019-04-29T02:04:15.109Z,3.53
2019-04-29T02:06:43.580Z,3.43
2019-04-29T02:09:16.615Z,3.42
2019-04-29T02:11:45.095Z,3.36
2019-04-29T02:14:13.543Z,3.39
2019-04-29T02:16:41.994Z,3.37
2019-04-29T02:19:10.540Z,3.45
2019-04-29T02:21:38.987Z,3.31
2019-04-29T02:24:09.073Z,3.38
2019-04-29T02:26:37.568Z,3.35
2019-04-29T02:29:06.076Z,3.35
2019-04-29T02:31:44.980Z,3.50
2019-04-29T02:34:13.417Z,3.51
2019-04-29T02:36:41.862Z,3.42
2019-04-29T02:39:16.490Z,3.35
2019-04-29T02:42:02.890Z,3.42
2019-04-29T02:44:31.380Z,3.58
2019-04-29T02:46:59.829Z,3.51
2019-04-29T02:49:28.269Z,3.53
2019-04-29T02:51:57.174Z,3.63
2019-04-29T02:54:27.331Z,3.59
2019-04-29T02:56:57.490Z,3.73
2019-04-29T02:59:33.779Z,3.76
2019-04-29T03:02:03.940Z,3.84
2019-04-29T03:04:34.093Z,3.88
2019-04-29T03:07:02.845Z,3.89
2019-04-29T03:09:32.989Z,3.89
2019-04-29T03:12:01.865Z,3.88
2019-04-29T03:14:30.811Z,3.88
2019-04-29T03:16:59.347Z,3.86
2019-04-29T03:19:32.408Z,3.88
2019-04-29T03:22:02.663Z,3.99
2019-04-29T03:24:31.184Z,4.01
2019-04-29T03:26:59.665Z,4.09
2019-04-29T03:29:28.248Z,4.02
2019-04-29T03:31:57.392Z,4.08
2019-04-29T03:34:25.977Z,4.03
2019-04-29T03:36:54.607Z,4.05
2019-04-29T03:39:23.214Z,4.05
2019-04-29T03:41:51.632Z,4.07
2019-04-29T03:44:20.123Z,4.13
2019-04-29T03:46:48.597Z,4.17
2019-04-29T03:49:17.142Z,4.23
2019-04-29T03:51:45.651Z,4.10
2019-04-29T03:54:14.112Z,4.22
2019-04-29T03:56:44.314Z,4.27
2019-04-29T03:59:12.802Z,4.39
2019-04-29T04:01:42.895Z,4.30
2019-04-29T04:04:13.007Z,4.33
2019-04-29T04:06:45.847Z,4.35
2019-04-29T04:09:16.018Z,4.60
2019-04-29T04:11:44.467Z,4.75
2019-04-29T04:14:13.052Z,4.53
2019-04-29T04:17:01.013Z,4.32
2019-04-29T04:19:31.130Z,4.43
2019-04-29T04:21:59.589Z,4.15
2019-04-29T04:24:28.068Z,4.19
2019-04-29T04:26:56.827Z,4.33
2019-04-29T04:29:25.278Z,4.34
2019-04-29T04:31:53.735Z,4.29
2019-04-29T04:34:22.228Z,4.21
2019-04-29T04:36:50.853Z,4.11
2019-04-29T04:39:19.299Z,4.19
2019-04-29T04:41:47.794Z,4.29
2019-04-29T04:44:16.258Z,4.29
2019-04-29T04:46:44.714Z,4.36
2019-04-29T04:49:15.849Z,4.68
2019-04-29T04:51:43.567Z,4.30
2019-04-29T04:54:11.990Z,4.53
2019-04-29T04:56:40.479Z,4.50
2019-04-29T04:59:08.932Z,4.53
2019-04-29T05:01:37.450Z,4.82
2019-04-29T05:04:06.039Z,4.55
2019-04-29T05:06:34.503Z,4.57
2019-04-29T05:09:04.602Z,4.66
2019-04-29T05:11:33.260Z,4.43
2019-04-29T05:14:01.715Z,4.43
2019-04-29T05:16:30.170Z,4.49
2019-04-29T05:18:58.809Z,4.62
2019-04-29T05:21:27.332Z,4.91
2019-04-29T05:23:55.869Z,5.12
2019-04-29T05:26:24.366Z,4.80
2019-04-29T05:28:52.840Z,4.97
2019-04-29T05:31:21.292Z,4.74
2019-04-29T05:33:49.906Z,4.70
2019-04-29T05:36:22.969Z,4.81
2019-04-29T05:38:53.067Z,5.16
2019-04-29T05:41:22.671Z,5.17
2019-04-29T05:43:55.274Z,5.00
2019-04-29T05:46:40.442Z,4.85
2019-04-29T05:49:10.542Z,4.85
2019-04-29T05:51:46.710Z,5.06
2019-04-29T05:54:27.041Z,4.96
2019-04-29T05:56:55.527Z,4.96
2019-04-29T05:59:23.992Z,5.07
2019-04-29T06:01:52.514Z,5.06
2019-04-29T06:04:21.151Z,5.13
2019-04-29T06:06:49.627Z,5.42
2019-04-29T06:09:18.393Z,5.79
2019-04-29T06:11:47.100Z,5.90
2019-04-29T06:14:15.831Z,6.03
2019-04-29T06:16:44.425Z,5.79
2019-04-29T06:19:12.945Z,5.48
2019-04-29T06:21:41.460Z,5.52
2019-04-29T06:24:09.977Z,5.62
2019-04-29T06:26:38.721Z,5.49
2019-04-29T06:29:07.167Z,5.89
2019-04-29T06:31:35.682Z,6.29
2019-04-29T06:34:05.326Z,6.04
2019-04-29T06:36:34.538Z,6.17
2019-04-29T06:39:04.137Z,6.19
2019-04-29T06:41:32.646Z,6.30
2019-04-29T06:44:06.709Z,6.42
2019-04-29T06:46:31.346Z,6.75
2019-04-29T06:49:10.216Z,6.62
2019-04-29T06:51:30.531Z,6.77
2019-04-29T06:53:58.990Z,7.54
2019-04-29T06:56:27.540Z,7.24
2019-04-29T06:58:55.996Z,7.51
2019-04-29T07:01:24.509Z,7.24
2019-04-29T07:03:55.731Z,7.49
2019-04-29T07:06:23.251Z,8.01
2019-04-29T07:08:51.689Z,7.86
2019-04-29T07:11:20.344Z,7.82
2019-04-29T07:13:48.856Z,7.83
2019-04-29T07:16:21.553Z,7.77
2019-04-29T07:18:49.972Z,7.56
2019-04-29T07:21:17.776Z,7.97
2019-04-29T07:23:46.780Z,8.27
2019-04-29T07:26:15.269Z,8.38
2019-04-29T07:28:43.758Z,8.59
2019-04-29T07:31:12.230Z,8.68
2019-04-29T07:33:40.892Z,8.61
2019-04-29T07:36:11.353Z,8.79
2019-04-29T07:38:41.753Z,8.72
2019-04-29T07:41:10.126Z,8.68
2019-04-29T07:43:42.913Z,8.85
2019-04-29T07:46:28.665Z,9.27
2019-04-29T07:49:01.597Z,9.34
2019-04-29T07:51:27.373Z,9.66
2019-04-29T07:53:55.927Z,10.23
2019-04-29T07:56:24.450Z,9.49
2019-04-29T07:58:52.964Z,9.73
2019-04-29T08:01:24.401Z,9.75
2019-04-29T08:03:51.801Z,10.04
2019-04-29T08:06:20.633Z,10.41
2019-04-29T08:08:55.595Z,10.43
2019-04-29T08:11:20.317Z,10.55
2019-04-29T08:13:50.209Z,10.96
2019-04-29T08:16:18.727Z,10.86
2019-04-29T08:18:49.635Z,11.00
2019-04-29T08:21:17.356Z,10.96
2019-04-29T08:23:45.983Z,11.00
2019-04-29T08:26:14.430Z,11.47
2019-04-29T08:28:42.954Z,11.23
2019-04-29T08:31:11.439Z,11.33
2019-04-29T08:33:42.441Z,11.17
2019-04-29T08:36:10.137Z,11.36
2019-04-29T08:38:38.649Z,11.62
2019-04-29T08:41:07.114Z,11.67
2019-04-29T08:43:39.674Z,11.64
2019-04-29T08:46:15.755Z,11.95
2019-04-29T08:48:46.013Z,11.92
2019-04-29T08:51:14.583Z,11.71
2019-04-29T08:53:43.311Z,11.80
2019-04-29T08:56:12.098Z,12.33
2019-04-29T08:58:44.224Z,12.37
2019-04-29T09:01:11.082Z,12.27
2019-04-29T09:03:40.856Z,12.67
2019-04-29T09:06:09.607Z,12.88
2019-04-29T09:08:53.459Z,12.79
2019-04-29T09:11:12.863Z,13.10
2019-04-29T09:13:38.788Z,13.61
2019-04-29T09:16:07.509Z,13.09
2019-04-29T09:18:35.966Z,13.11
2019-04-29T09:21:04.427Z,13.32
2019-04-29T09:23:34.790Z,13.66
2019-04-29T09:26:04.888Z,14.15
2019-04-29T09:28:33.615Z,14.25
2019-04-29T09:31:02.492Z,14.31
2019-04-29T09:33:30.944Z,14.69
2019-04-29T09:35:59.395Z,14.38
2019-04-29T09:38:28.153Z,14.51
2019-04-29T09:40:59.700Z,14.64
2019-04-29T09:43:33.053Z,15.08
2019-04-29T09:46:06.057Z,15.12
2019-04-29T09:48:34.591Z,15.14
2019-04-29T09:51:16.402Z,15.45
2019-04-29T09:53:33.259Z,15.31
2019-04-29T09:56:01.849Z,15.11
2019-04-29T09:58:30.376Z,15.22
2019-04-29T10:01:00.539Z,15.32
2019-04-29T10:03:46.779Z,15.49
2019-04-29T10:06:20.070Z,15.33
2019-04-29T10:08:48.596Z,15.54
2019-04-29T10:11:17.055Z,15.30
2019-04-29T10:13:45.552Z,15.80
2019-04-29T10:16:35.962Z,15.86
2019-04-29T10:19:05.243Z,16.04
2019-04-29T10:21:33.988Z,15.95
2019-04-29T10:24:02.643Z,15.87
2019-04-29T10:26:31.147Z,15.49
2019-04-29T10:29:01.238Z,15.61
2019-04-29T10:31:29.887Z,15.48
2019-04-29T10:33:58.363Z,15.55
2019-04-29T10:36:26.956Z,15.77
2019-04-29T10:38:57.119Z,15.59
2019-04-29T10:41:36.070Z,15.88
2019-04-29T10:44:21.604Z,15.74
2019-04-29T10:47:08.155Z,15.84
2019-04-29T10:49:44.119Z,15.69
2019-04-29T10:52:13.029Z,15.81
2019-04-29T10:54:41.567Z,15.79
2019-04-29T10:57:10.472Z,15.64
2019-04-29T10:59:45.032Z,15.89
2019-04-29T11:02:21.949Z,15.88
2019-04-29T11:04:52.431Z,16.13
2019-04-29T11:07:34.931Z,15.99
2019-04-29T11:10:08.039Z,16.05
2019-04-29T11:12:36.281Z,16.27
2019-04-29T11:15:09.761Z,16.06
2019-04-29T11:17:39.592Z,16.22
2019-04-29T11:20:11.267Z,16.20
2019-04-29T11:22:44.685Z,16.20
2019-04-29T11:25:18.202Z,15.96
2019-04-29T11:27:48.293Z,15.85
2019-04-29T11:30:18.675Z,15.96
2019-04-29T11:32:51.760Z,15.90
2019-04-29T11:35:31.227Z,15.68
2019-04-29T11:38:00.069Z,15.95
2019-04-29T11:40:42.700Z,16.21
2019-04-29T11:42:58.839Z,16.07
2019-04-29T11:45:27.428Z,16.35
2019-04-29T11:47:55.950Z,16.16
2019-04-29T11:50:27.007Z,16.10
2019-04-29T11:52:55.816Z,15.82
2019-04-29T11:55:24.349Z,15.97
2019-04-29T11:57:55.025Z,16.36
2019-04-29T12:00:27.789Z,16.36
2019-04-29T12:03:07.001Z,15.99
2019-04-29T12:05:44.655Z,16.10
2019-04-29T12:08:15.993Z,16.23
2019-04-29T12:10:46.876Z,15.87
2019-04-29T12:13:13.627Z,16.18
2019-04-29T12:15:55.533Z,15.91
2019-04-29T12:18:25.697Z,16.02
2019-04-29T12:20:55.785Z,15.90
2019-04-29T12:23:24.287Z,16.18
2019-04-29T12:25:52.742Z,16.07
2019-04-29T12:28:21.265Z,16.45
2019-04-29T12:30:51.533Z,16.54
2019-04-29T12:33:24.581Z,16.27
2019-04-29T12:36:07.156Z,16.33
2019-04-29T12:38:40.597Z,16.37
2019-04-29T12:41:20.945Z,16.04
2019-04-29T12:43:59.383Z,16.35
2019-04-29T12:46:31.183Z,16.28
2019-04-29T12:49:03.663Z,16.54
2019-04-29T12:51:29.986Z,16.43
2019-04-29T12:53:58.495Z,16.33
2019-04-29T12:56:37.487Z,16.77
2019-04-29T12:59:06.125Z,16.60
2019-04-29T13:01:51.198Z,16.70
2019-04-29T13:04:14.801Z,16.93
2019-04-29T13:06:59.410Z,16.47
2019-04-29T13:09:29.579Z,16.71
2019-04-29T13:12:11.275Z,16.91
2019-04-29T13:14:33.130Z,16.94
2019-04-29T13:17:14.280Z,17.06
2019-04-29T13:19:50.278Z,17.13
2019-04-29T13:22:16.890Z,17.20
2019-04-29T13:24:45.747Z,17.02
2019-04-29T13:27:16.346Z,17.18
2019-04-29T13:29:44.561Z,17.09
2019-04-29T13:32:13.065Z,17.11
2019-04-29T13:34:43.197Z,17.21
2019-04-29T13:37:18.349Z,17.25
2019-04-29T13:39:41.906Z,16.96
2019-04-29T13:42:15.307Z,16.98
2019-04-29T13:44:42.514Z,16.84
2019-04-29T13:47:31.294Z,16.90
2019-04-29T13:50:20.453Z,16.99
2019-04-29T13:52:51.989Z,17.15
2019-04-29T13:55:46.579Z,17.16
2019-04-29T13:57:50.822Z,17.25
2019-04-29T14:00:26.020Z,17.45
2019-04-29T14:02:59.518Z,17.24
2019-04-29T14:05:32.532Z,17.36
2019-04-29T14:08:03.967Z,17.17
2019-04-29T14:10:32.619Z,16.73
2019-04-29T14:13:10.839Z,16.58
2019-04-29T14:15:33.988Z,16.62
2019-04-29T14:18:01.962Z,16.51
2019-04-29T14:20:30.547Z,16.25
2019-04-29T14:22:58.997Z,15.96
2019-04-29T14:25:27.567Z,15.77
2019-04-29T14:27:56.403Z,15.57
2019-04-29T14:30:37.939Z,15.65
2019-04-29T14:32:57.082Z,14.90
2019-04-29T14:35:36.084Z,15.07
2019-04-29T14:38:05.147Z,14.64
2019-04-29T14:40:33.379Z,14.86
2019-04-29T14:43:28.558Z,14.79
2019-04-29T14:46:03.681Z,14.56
2019-04-29T14:48:42.197Z,14.50
2019-04-29T14:51:04.174Z,14.45
2019-04-29T14:53:32.666Z,14.49
2019-04-29T14:56:01.170Z,14.31
2019-04-29T14:58:29.638Z,14.33
2019-04-29T15:01:12.769Z,14.30
2019-04-29T15:03:52.292Z,14.32
2019-04-29T15:06:20.930Z,14.46
2019-04-29T15:08:49.432Z,14.52
2019-04-29T15:11:31.042Z,14.34
2019-04-29T15:13:51.296Z,14.34
2019-04-29T15:16:30.993Z,14.30
2019-04-29T15:19:03.066Z,14.42
2019-04-29T15:21:33.953Z,14.46
2019-04-29T15:24:02.949Z,14.51
2019-04-29T15:26:31.740Z,14.31
2019-04-29T15:29:00.201Z,14.30
2019-04-29T15:31:28.720Z,14.27
2019-04-29T15:33:57.239Z,14.34
2019-04-29T15:36:25.887Z,14.42
2019-04-29T15:39:09.035Z,14.50
2019-04-29T15:41:30.090Z,14.40
2019-04-29T15:44:06.559Z,14.48
2019-04-29T15:46:25.229Z,14.48
2019-04-29T15:48:53.849Z,14.50
2019-04-29T15:51:22.297Z,14.64
2019-04-29T15:53:54.190Z,14.58
2019-04-29T15:56:28.986Z,14.42
2019-04-29T15:58:51.487Z,14.69
2019-04-29T16:01:27.221Z,14.40
2019-04-29T16:03:54.813Z,14.21
2019-04-29T16:06:40.148Z,14.10
2019-04-29T16:09:10.828Z,14.05
2019-04-29T16:11:55.939Z,14.41
2019-04-29T16:14:25.102Z,14.00
2019-04-29T16:16:53.554Z,13.84
2019-04-29T16:19:22.013Z,13.77
2019-04-29T16:21:50.696Z,13.89
2019-04-29T16:24:26.219Z,13.63
2019-04-29T16:26:53.561Z,13.73
2019-04-29T16:29:19.655Z,13.68
2019-04-29T16:31:48.107Z,13.80
2019-04-29T16:34:16.563Z,13.74
2019-04-29T16:36:50.046Z,13.69
2019-04-29T16:39:15.331Z,13.69
2019-04-29T16:41:45.650Z,13.63
2019-04-29T16:44:34.056Z,13.64
2019-04-29T16:46:46.455Z,13.62
2019-04-29T16:49:15.081Z,13.66
2019-04-29T16:51:47.985Z,13.47
2019-04-29T16:54:20.379Z,13.70
2019-04-29T16:56:44.414Z,13.54
2019-04-29T16:59:13.063Z,13.53
2019-04-29T17:01:41.586Z,13.48
2019-04-29T17:04:10.205Z,13.41
2019-04-29T17:06:41.642Z,13.57
2019-04-29T17:09:27.171Z,13.94
2019-04-29T17:11:58.157Z,13.46
2019-04-29T17:14:26.559Z,13.38
2019-04-29T17:16:55.086Z,13.30
2019-04-29T17:19:23.649Z,13.37
2019-04-29T17:21:52.187Z,13.03
2019-04-29T17:24:20.639Z,13.03
2019-04-29T17:26:53.778Z,13.01
2019-04-29T17:29:38.958Z,13.03
2019-04-29T17:32:18.290Z,13.00
2019-04-29T17:34:58.891Z,12.97
2019-04-29T17:37:19.123Z,12.87
2019-04-29T17:39:47.611Z,12.97
2019-04-29T17:42:16.071Z,13.12
2019-04-29T17:44:45.799Z,12.90
2019-04-29T17:47:19.061Z,13.12
2019-04-29T17:49:52.004Z,13.19
2019-04-29T17:52:22.191Z,13.22
2019-04-29T17:55:05.163Z,13.15
2019-04-29T17:57:37.790Z,13.19
2019-04-29T18:00:26.480Z,12.98
2019-04-29T18:03:08.606Z,13.20
2019-04-29T18:05:52.977Z,13.02
2019-04-29T18:08:16.811Z,12.99
2019-04-29T18:10:47.016Z,13.06
2019-04-29T18:13:17.292Z,13.04
2019-04-29T18:15:59.918Z,12.90
2019-04-29T18:18:20.711Z,12.81
2019-04-29T18:20:59.556Z,12.65
2019-04-29T18:23:41.237Z,12.63
2019-04-29T18:26:17.425Z,12.54
2019-04-29T18:28:45.979Z,12.48
2019-04-29T18:31:14.570Z,12.60
2019-04-29T18:33:43.027Z,12.55
2019-04-29T18:36:21.819Z,12.43
2019-04-29T18:38:42.408Z,12.35
2019-04-29T18:41:16.401Z,12.49
2019-04-29T18:43:42.292Z,12.87
2019-04-29T18:46:12.573Z,12.94
2019-04-29T18:48:40.937Z,13.09
2019-04-29T18:51:09.662Z,12.66
2019-04-29T18:53:38.120Z,13.09
2019-04-29T18:56:06.589Z,12.78
2019-04-29T18:58:35.612Z,12.83
2019-04-29T19:01:05.378Z,12.54
2019-04-29T19:03:38.994Z,12.46
2019-04-29T19:06:10.227Z,12.41
2019-04-29T19:08:37.764Z,12.31
2019-04-29T19:11:06.925Z,12.22
2019-04-29T19:13:36.332Z,12.22
2019-04-29T19:16:10.370Z,12.10
2019-04-29T19:18:35.330Z,12.14
2019-04-29T19:21:03.963Z,12.15
2019-04-29T19:23:32.433Z,12.07
2019-04-29T19:26:00.952Z,12.00
2019-04-29T19:28:32.298Z,12.05
2019-04-29T19:31:03.134Z,11.95
2019-04-29T19:33:30.773Z,12.00
2019-04-29T19:36:00.226Z,12.05
2019-04-29T19:38:28.685Z,12.07
2019-04-29T19:40:57.145Z,12.03
2019-04-29T19:43:25.954Z,12.15
2019-04-29T19:45:54.981Z,12.03
2019-04-29T19:48:26.990Z,12.03
2019-04-29T19:51:14.036Z,12.16
2019-04-29T19:53:25.293Z,12.25
2019-04-29T19:56:02.955Z,12.44
2019-04-29T19:58:29.569Z,12.18
2019-04-29T20:00:57.295Z,12.13
2019-04-29T20:03:35.338Z,12.13
2019-04-29T20:06:25.016Z,11.99
2019-04-29T20:08:53.918Z,11.98
2019-04-29T20:11:18.478Z,12.03
2019-04-29T20:14:01.253Z,12.50
2019-04-29T20:16:39.800Z,12.40
2019-04-29T20:19:12.061Z,12.70
2019-04-29T20:21:36.566Z,12.69
2019-04-29T20:24:09.667Z,12.54
2019-04-29T20:26:36.229Z,12.65
2019-04-29T20:29:07.123Z,12.44
2019-04-29T20:31:37.366Z,12.67
2019-04-29T20:34:06.202Z,12.49
2019-04-29T20:36:41.459Z,12.34
2019-04-29T20:39:07.108Z,12.46
2019-04-29T20:41:41.344Z,12.36
2019-04-29T20:44:09.273Z,12.48
2019-04-29T20:46:44.954Z,12.57
2019-04-29T20:49:08.147Z,12.33
2019-04-29T20:51:48.811Z,12.40
2019-04-29T20:54:15.948Z,12.36
2019-04-29T20:56:41.978Z,12.19
2019-04-29T20:59:12.767Z,12.24
2019-04-29T21:01:43.498Z,12.27
2019-04-29T21:04:12.698Z,12.29
2019-04-29T21:06:57.175Z,12.31
2019-04-29T21:09:11.739Z,12.22
2019-04-29T21:12:00.315Z,12.26
2019-04-29T21:14:33.976Z,12.21
2019-04-29T21:17:02.153Z,12.25
2019-04-29T21:19:31.219Z,12.33
2019-04-29T21:21:59.648Z,12.23
2019-04-29T21:24:28.174Z,12.29
2019-04-29T21:26:57.382Z,12.32
2019-04-29T21:29:26.057Z,12.24
2019-04-29T21:31:58.392Z,12.38
2019-04-29T21:34:29.592Z,12.30
2019-04-29T21:37:08.579Z,12.34
2019-04-29T21:39:37.772Z,12.27
2019-04-29T21:42:08.238Z,12.19
2019-04-29T21:44:36.702Z,12.20
2019-04-29T21:47:08.061Z,12.38
2019-04-29T21:49:44.837Z,12.25
2019-04-29T21:52:06.066Z,12.41
2019-04-29T21:54:34.789Z,12.22
2019-04-29T21:57:03.322Z,12.13
2019-04-29T21:59:31.927Z,12.36
2019-04-29T22:02:00.691Z,12.36
2019-04-29T22:04:32.747Z,12.34
2019-04-29T22:07:04.802Z,12.22
2019-04-29T22:09:36.102Z,12.54
2019-04-29T22:12:00.571Z,12.39
2019-04-29T22:14:29.107Z,12.57
2019-04-29T22:16:57.767Z,12.39
2019-04-29T22:19:28.020Z,12.39
2019-04-29T22:21:57.885Z,12.38
2019-04-29T22:24:27.638Z,12.41
2019-04-29T22:27:03.678Z,12.47
2019-04-29T22:29:26.417Z,12.25
2019-04-29T22:31:55.909Z,12.22
2019-04-29T22:34:25.338Z,12.15
2019-04-29T22:36:58.345Z,12.15
2019-04-29T22:39:26.884Z,12.13
2019-04-29T22:41:55.971Z,12.40
2019-04-29T22:44:25.948Z,12.07
2019-04-29T22:46:55.513Z,12.04
2019-04-29T22:49:27.186Z,12.25
2019-04-29T22:51:57.095Z,12.21
2019-04-29T22:54:24.533Z,12.24
2019-04-29T22:56:54.659Z,12.50
2019-04-29T22:59:23.233Z,12.49
2019-04-29T23:01:53.410Z,12.18
2019-04-29T23:04:21.873Z,12.23
2019-04-29T23:06:50.400Z,12.29
2019-04-29T23:09:18.969Z,12.05
2019-04-29T23:11:47.604Z,12.02
2019-04-29T23:14:16.137Z,11.94
2019-04-29T23:16:45.431Z,12.10
2019-04-29T23:19:17.887Z,12.12
2019-04-29T23:22:05.914Z,12.11
2019-04-29T23:24:36.179Z,12.22
2019-04-29T23:27:06.233Z,12.14
2019-04-29T23:29:37.196Z,12.12
2019-04-29T23:32:08.191Z,12.18
2019-04-29T23:34:36.988Z,12.11
2019-04-29T23:37:05.687Z,12.20
2019-04-29T23:39:34.785Z,12.02
2019-04-29T23:42:04.578Z,12.00
2019-04-29T23:44:37.865Z,11.97
2019-04-29T23:47:05.250Z,11.89
2019-04-29T23:49:36.932Z,11.79
2019-04-29T23:52:06.778Z,12.04
2019-04-29T23:54:44.160Z,12.01
2019-04-29T23:57:07.248Z,12.02
2019-04-29T23:59:58.504Z,12.03
